Time;durP1;ratioP1;P1;durP2;ratioP2;P2;SDS_P1;SDS_P2;PMS_P1;PMS_P2;Temp;Humidity;BMP_temperature;BMP_pressure;BME280_temperature;BME280_humidity;BME280_pressure;Samples;Min_cycle;Max_cycle;Signal;HPM_P1;HPM_P2
2022/06/10 00:00:29;;;;;;;5.70;2.30;;;14.90;95.10;;;;;;4951097;28;100284;-74
2022/06/10 00:02:56;;;;;;;6.70;2.95;;;14.90;95.30;;;;;;4951111;28;99330;-74
2022/06/10 00:05:28;;;;;;;5.10;2.00;;;14.90;95.30;;;;;;4952409;28;99130;-74
2022/06/10 00:07:56;;;;;;;8.00;2.85;;;14.90;95.30;;;;;;4952926;28;98401;-73
2022/06/10 00:10:25;;;;;;;6.03;3.45;;;14.80;95.20;;;;;;4967231;28;99497;-74
2022/06/10 00:12:52;;;;;;;6.82;3.53;;;14.80;95.20;;;;;;4952482;28;99112;-74
2022/06/10 00:15:19;;;;;;;8.70;2.65;;;14.80;95.20;;;;;;4918997;28;98530;-73
2022/06/10 00:17:46;;;;;;;6.50;2.60;;;14.80;95.20;;;;;;4951478;28;98552;-74
2022/06/10 00:20:17;;;;;;;5.03;3.00;;;14.80;95.40;;;;;;4966573;28;102531;-74
2022/06/10 00:22:44;;;;;;;5.90;3.55;;;14.80;95.30;;;;;;4952450;28;99752;-73
2022/06/10 00:25:12;;;;;;;5.40;2.95;;;14.70;95.40;;;;;;4952359;28;98408;-74
2022/06/10 00:27:39;;;;;;;5.53;2.35;;;14.70;95.80;;;;;;4967504;28;98750;-73
2022/06/10 00:30:08;;;;;;;5.15;3.33;;;14.70;95.50;;;;;;4934376;28;101844;-74
2022/06/10 00:32:34;;;;;;;6.75;3.25;;;14.70;95.60;;;;;;4967028;28;101557;-73
2022/06/10 00:35:02;;;;;;;8.27;3.10;;;14.70;95.60;;;;;;4954853;28;99152;-73
2022/06/10 00:37:29;;;;;;;4.88;2.40;;;14.70;95.70;;;;;;4954576;28;97827;-73
2022/06/10 00:39:57;;;;;;;8.13;3.42;;;14.70;95.80;;;;;;4970173;28;101991;-74
2022/06/10 00:42:24;;;;;;;7.15;3.00;;;14.60;95.80;;;;;;4921533;28;101555;-74
2022/06/10 00:44:53;;;;;;;4.25;3.03;;;14.60;95.80;;;;;;4955474;28;99323;-74
2022/06/10 00:47:32;;;;;;;7.32;2.63;;;14.60;95.90;;;;;;4955253;28;98498;-74
2022/06/10 00:50:13;;;;;;;6.97;3.38;;;14.60;96.00;;;;;;4954150;28;99350;-73
2022/06/10 00:52:48;;;;;;;6.45;2.95;;;14.50;96.10;;;;;;4970269;28;99098;-74
2022/06/10 00:55:15;;;;;;;9.20;3.85;;;14.50;96.10;;;;;;4937824;28;98643;-74
2022/06/10 00:57:45;;;;;;;7.68;2.90;;;14.50;96.20;;;;;;4955178;28;98569;-73
2022/06/10 01:00:16;;;;;;;8.00;3.92;;;14.50;96.30;;;;;;4953568;28;99129;-74
2022/06/10 01:02:44;;;;;;;5.57;3.60;;;14.40;96.30;;;;;;4955408;28;99101;-74
2022/06/10 01:05:21;;;;;;;8.48;3.35;;;14.40;96.40;;;;;;4954084;28;99013;-74
2022/06/10 01:07:58;;;;;;;3.00;2.80;;;14.40;96.50;;;;;;4955634;28;98407;-74
2022/06/10 01:10:26;;;;;;;7.85;3.60;;;14.30;96.60;;;;;;4954586;28;100073;-74
2022/06/10 01:13:19;;;;;;;5.45;3.90;;;14.30;96.70;;;;;;4954798;28;99670;-74
2022/06/10 01:16:17;;;;;;;4.77;3.40;;;14.30;96.70;;;;;;4954258;28;98570;-73
2022/06/10 01:19:18;;;;;;;9.13;3.15;;;14.20;96.70;;;;;;4937649;28;98507;-74
2022/06/10 01:22:27;;;;;;;8.25;4.07;;;14.20;96.90;;;;;;4969414;28;107873;-73
2022/06/10 01:25:12;;;;;;;5.18;4.13;;;14.10;97.00;;;;;;4949940;28;101996;-74
2022/06/10 01:27:56;;;;;;;6.80;3.10;;;14.10;97.10;;;;;;4955106;28;99137;-74
2022/06/10 01:30:23;;;;;;;;;;;14.10;97.30;;;;;;4955809;28;97807;-73
2022/06/10 01:33:10;;;;;;;5.43;3.45;;;13.90;97.40;;;;;;4955565;28;100817;-73
2022/06/10 01:36:05;;;;;;;6.93;3.40;;;13.90;97.60;;;;;;4969327;28;99385;-74
2022/06/10 01:38:50;;;;;;;8.13;4.35;;;13.90;97.60;;;;;;4954761;28;99847;-73
2022/06/10 01:41:58;;;;;;;8.82;3.67;;;13.90;97.60;;;;;;4953522;28;98439;-74
2022/06/10 01:44:38;;;;;;;4.95;3.85;;;13.90;97.60;;;;;;4943824;28;99250;-73
2022/06/10 01:47:23;;;;;;;10.25;5.13;;;13.80;97.70;;;;;;4935884;28;101617;-73
2022/06/10 01:50:46;;;;;;;8.15;3.58;;;13.80;97.80;;;;;;4969474;28;99091;-74
2022/06/10 01:53:20;;;;;;;8.60;3.60;;;13.80;97.80;;;;;;4875243;28;98552;-74
2022/06/10 01:56:01;;;;;;;8.82;4.38;;;13.70;97.90;;;;;;4875093;28;99703;-74
2022/06/10 01:58:45;;;;;;;12.02;3.97;;;13.70;97.90;;;;;;4924734;28;100367;-74
2022/06/10 02:01:18;;;;;;;8.68;3.42;;;13.70;97.90;;;;;;4954681;28;98474;-73
2022/06/10 02:03:53;;;;;;;6.25;3.20;;;13.70;97.90;;;;;;4969297;28;98854;-74
2022/06/10 02:06:26;;;;;;;6.68;3.35;;;13.60;98.00;;;;;;4953829;28;100678;-74
2022/06/10 02:08:59;;;;;;;5.93;3.92;;;13.60;98.10;;;;;;4952956;28;99744;-74
2022/06/10 02:11:28;;;;;;;8.73;4.65;;;13.60;98.00;;;;;;4952780;28;98616;-73
2022/06/10 02:14:07;;;;;;;8.68;4.00;;;13.60;98.10;;;;;;4953040;28;98676;-73
2022/06/10 02:16:38;;;;;;;10.52;4.75;;;13.60;98.10;;;;;;4952601;28;99392;-74
2022/06/10 02:19:17;;;;;;;5.95;4.85;;;13.60;98.10;;;;;;4953954;28;99210;-74
2022/06/10 02:22:07;;;;;;;8.77;4.20;;;13.60;98.00;;;;;;4952869;28;98588;-73
2022/06/10 02:24:54;;;;;;;7.90;3.65;;;13.60;97.90;;;;;;4952702;28;97846;-73
2022/06/10 02:27:28;;;;;;;8.95;4.18;;;13.60;97.90;;;;;;4939603;28;99320;-74
2022/06/10 02:30:23;;;;;;;9.32;4.90;;;13.50;98.00;;;;;;4952296;28;101540;-73
2022/06/10 02:32:50;;;;;;;7.28;4.70;;;13.60;98.00;;;;;;4952476;28;99690;-73
2022/06/10 02:35:18;;;;;;;7.15;3.90;;;13.50;98.00;;;;;;4936768;28;98594;-73
2022/06/10 02:38:03;;;;;;;7.78;3.80;;;13.50;98.00;;;;;;4953593;28;99426;-73
2022/06/10 02:40:50;;;;;;;7.15;3.85;;;13.60;98.00;;;;;;4951869;28;99988;-74
2022/06/10 02:43:31;;;;;;;7.53;3.60;;;13.50;98.10;;;;;;4954083;28;98608;-74
2022/06/10 02:46:16;;;;;;;6.47;3.67;;;13.50;98.10;;;;;;4954307;28;99148;-74
2022/06/10 02:49:07;;;;;;;4.95;3.75;;;13.50;98.10;;;;;;4953370;28;99411;-74
2022/06/10 02:51:36;;;;;;;6.80;3.88;;;13.50;98.10;;;;;;4953732;28;98957;-73
2022/06/10 02:54:07;;;;;;;8.30;4.13;;;13.40;98.20;;;;;;4953583;28;98438;-73
2022/06/10 02:56:34;;;;;;;9.27;4.03;;;13.40;98.40;;;;;;4953114;28;98513;-73
2022/06/10 03:02:04;;;;;;;7.30;5.07;;;13.40;98.40;;;;;;4953261;28;99662;-74
2022/06/10 03:04:31;;;;;;;7.47;4.43;;;13.40;98.60;;;;;;4968194;28;98547;-73
2022/06/10 03:07:13;;;;;;;6.00;3.80;;;13.40;98.50;;;;;;4968687;28;98517;-73
2022/06/10 03:10:16;;;;;;;10.48;4.15;;;13.40;98.50;;;;;;4953179;28;99365;-74
2022/06/10 03:13:18;;;;;;;7.88;4.78;;;13.40;98.60;;;;;;4953107;28;99106;-73
2022/06/10 03:15:45;;;;;;;10.48;5.00;;;13.40;98.60;;;;;;4968142;28;98551;-73
2022/06/10 03:18:23;;;;;;;7.82;4.15;;;13.30;98.60;;;;;;4953929;28;98322;-73
2022/06/10 03:20:56;;;;;;;6.72;3.83;;;13.40;98.60;;;;;;4952927;28;99268;-74
2022/06/10 03:23:45;;;;;;;7.83;3.90;;;13.30;98.60;;;;;;4952890;28;104343;-73
2022/06/10 03:26:32;;;;;;;9.00;4.10;;;13.40;98.60;;;;;;4951532;28;99201;-73
2022/06/10 03:29:06;;;;;;;8.57;4.20;;;13.30;98.60;;;;;;4953160;28;98569;-73
2022/06/10 03:31:43;;;;;;;11.07;4.50;;;13.40;98.70;;;;;;4952717;28;99379;-73
2022/06/10 03:34:17;;;;;;;8.52;4.10;;;13.40;98.70;;;;;;4935189;28;99176;-73
2022/06/10 03:36:47;;;;;;;12.07;4.65;;;13.40;98.70;;;;;;4953088;28;98418;-73
2022/06/10 03:39:15;;;;;;;7.63;3.40;;;13.50;98.70;;;;;;4953047;28;98553;-73
2022/06/10 03:41:59;;;;;;;7.45;4.43;;;13.40;98.70;;;;;;4952595;28;99440;-74
2022/06/10 03:44:26;;;;;;;;;;;13.50;98.60;;;;;;4953967;28;99084;-73
2022/06/10 03:46:55;;;;;;;10.45;4.20;;;13.40;98.60;;;;;;4953977;28;98481;-74
2022/06/10 03:49:39;;;;;;;11.57;3.90;;;13.50;98.70;;;;;;4951686;28;98588;-73
2022/06/10 03:52:06;;;;;;;;;;;13.60;98.70;;;;;;4952907;28;100105;-73
2022/06/10 03:54:33;;;;;;;5.32;3.30;;;13.70;98.70;;;;;;4968494;28;101975;-73
2022/06/10 03:57:00;;;;;;;5.68;3.85;;;14.10;98.40;;;;;;4951591;28;99121;-73
2022/06/10 03:59:26;;;;;;;7.38;3.53;;;14.70;97.70;;;;;;4935280;28;102367;-73
2022/06/10 04:01:53;;;;;;;10.77;4.18;;;15.10;96.80;;;;;;4934655;28;100553;-74
2022/06/10 04:04:20;;;;;;;5.80;3.65;;;15.60;95.90;;;;;;4951431;28;99019;-73
2022/06/10 04:06:47;;;;;;;6.55;2.97;;;15.80;95.30;;;;;;4967845;28;99000;-74
2022/06/10 04:09:31;;;;;;;7.07;3.55;;;15.90;94.90;;;;;;4939333;28;97917;-74
2022/06/10 04:11:58;;;;;;;7.57;3.28;;;15.80;94.80;;;;;;4955713;28;99400;-74
2022/06/10 04:14:25;;;;;;;8.27;3.15;;;15.80;94.90;;;;;;4954367;28;101259;-74
2022/06/10 04:16:52;;;;;;;9.68;3.72;;;15.70;95.00;;;;;;4938221;28;99248;-73
2022/06/10 04:19:20;;;;;;;8.55;3.90;;;15.70;95.10;;;;;;4954803;28;98581;-74
2022/06/10 04:21:47;;;;;;;8.80;4.15;;;15.70;95.00;;;;;;4955517;28;99416;-73
2022/06/10 04:24:13;;;;;;;11.00;4.45;;;15.70;95.00;;;;;;4970540;28;101494;-73
2022/06/10 04:26:41;;;;;;;7.25;5.07;;;15.60;95.10;;;;;;4954401;28;98555;-74
2022/06/10 04:29:10;;;;;;;6.88;3.50;;;15.60;95.30;;;;;;4955935;28;98438;-73
2022/06/10 04:31:37;;;;;;;11.70;4.25;;;15.60;95.30;;;;;;4954273;28;99399;-74
2022/06/10 04:34:05;;;;;;;7.82;4.45;;;15.50;95.40;;;;;;4970476;28;101545;-73
2022/06/10 04:36:32;;;;;;;9.75;4.05;;;15.50;95.50;;;;;;4956051;28;99065;-74
2022/06/10 04:38:59;;;;;;;5.38;3.22;;;15.50;95.50;;;;;;4955723;28;98514;-73
2022/06/10 04:41:26;;;;;;;11.02;4.25;;;15.50;95.60;;;;;;4955039;28;100055;-73
2022/06/10 04:43:53;;;;;;;11.02;3.95;;;15.50;95.70;;;;;;4954706;28;113346;-74
2022/06/10 04:46:32;;;;;;;12.73;4.10;;;15.50;95.70;;;;;;4955895;28;99127;-73
2022/06/10 04:48:59;;;;;;;5.80;4.10;;;15.60;95.80;;;;;;4955540;28;98421;-73
2022/06/10 04:51:27;;;;;;;6.55;3.53;;;15.50;96.00;;;;;;4953984;28;102012;-73
2022/06/10 04:53:53;;;;;;;10.13;4.22;;;15.50;96.10;;;;;;4921483;28;101574;-74
2022/06/10 04:56:21;;;;;;;9.05;4.55;;;15.50;96.30;;;;;;4937688;28;99424;-74
2022/06/10 04:58:48;;;;;;;10.40;4.50;;;15.60;96.20;;;;;;4954557;28;97794;-74
2022/06/10 05:01:15;;;;;;;8.82;4.68;;;15.60;96.20;;;;;;4955273;28;99424;-74
2022/06/10 05:03:42;;;;;;;10.30;4.60;;;15.70;96.20;;;;;;4955011;28;99136;-74
2022/06/10 05:06:09;;;;;;;7.63;4.20;;;15.80;96.10;;;;;;4954900;28;99278;-74
2022/06/10 05:08:36;;;;;;;6.15;3.83;;;15.90;96.10;;;;;;4955445;28;99098;-73
2022/06/10 05:11:03;;;;;;;5.55;3.83;;;16.10;96.10;;;;;;4954889;28;99203;-74
2022/06/10 05:13:30;;;;;;;5.97;4.35;;;16.10;95.90;;;;;;4953637;28;99043;-74
2022/06/10 05:15:58;;;;;;;7.93;4.10;;;16.20;95.80;;;;;;4955214;28;99215;-74
2022/06/10 05:18:26;;;;;;;8.52;4.45;;;16.30;95.90;;;;;;4953930;28;99140;-74
2022/06/10 05:20:54;;;;;;;8.25;4.43;;;16.50;95.80;;;;;;4951951;28;99372;-72
2022/06/10 05:23:23;;;;;;;8.20;3.88;;;16.70;95.70;;;;;;4937494;28;104087;-72
2022/06/10 05:25:51;;;;;;;10.35;4.43;;;16.80;95.50;;;;;;4953527;28;98517;-72
2022/06/10 05:28:20;;;;;;;10.68;4.60;;;16.90;95.40;;;;;;4955026;28;98581;-72
2022/06/10 05:30:47;;;;;;;13.25;4.82;;;17.00;95.20;;;;;;4969050;28;102661;-72
2022/06/10 05:33:14;;;;;;;8.52;4.38;;;17.20;95.10;;;;;;4954216;28;99858;-72
2022/06/10 05:35:42;;;;;;;6.25;3.97;;;17.30;95.00;;;;;;4953260;28;102665;-72
2022/06/10 05:38:09;;;;;;;11.30;4.70;;;17.60;95.10;;;;;;4954664;28;98477;-72
2022/06/10 05:40:37;;;;;;;6.13;4.10;;;17.80;94.80;;;;;;4953120;28;101861;-72
2022/06/10 05:43:05;;;;;;;8.88;4.82;;;18.10;94.50;;;;;;4954240;28;99023;-72
2022/06/10 05:45:38;;;;;;;;;;;18.40;94.10;;;;;;4955529;28;98566;-72
2022/06/10 05:48:05;;;;;;;7.45;3.67;;;18.60;93.50;;;;;;4970763;28;97861;-72
2022/06/10 05:50:37;;;;;;;8.60;4.78;;;18.80;93.30;;;;;;4952970;28;99239;-72
2022/06/10 05:53:06;;;;;;;13.10;4.38;;;19.00;93.00;;;;;;4954222;28;99042;-72
2022/06/10 05:55:34;;;;;;;6.70;3.90;;;19.10;92.70;;;;;;4954033;28;99191;-72
2022/06/10 05:58:06;;;;;;;10.38;4.47;;;19.30;92.60;;;;;;4921795;28;98660;-72
2022/06/10 06:00:33;;;;;;;10.45;4.53;;;19.30;92.40;;;;;;4952557;28;100365;-72
2022/06/10 06:03:00;;;;;;;10.43;5.50;;;19.40;92.40;;;;;;4952533;28;101739;-72
2022/06/10 06:05:28;;;;;;;9.23;4.63;;;19.60;92.40;;;;;;4953074;28;98657;-72
2022/06/10 06:07:55;;;;;;;12.43;4.10;;;19.80;92.30;;;;;;4954275;28;98963;-72
2022/06/10 06:10:25;;;;;;;7.93;4.07;;;20.10;91.80;;;;;;4952455;28;110631;-72
2022/06/10 06:12:52;;;;;;;9.77;4.45;;;20.30;91.60;;;;;;4952878;28;99104;-72
2022/06/10 06:15:20;;;;;;;5.53;3.70;;;20.50;91.50;;;;;;4954058;28;98538;-72
2022/06/10 06:17:50;;;;;;;7.32;4.18;;;20.70;91.30;;;;;;4969293;28;98636;-72
2022/06/10 06:20:18;;;;;;;9.57;3.92;;;20.90;91.10;;;;;;4953290;28;100294;-72
2022/06/10 06:22:46;;;;;;;8.38;3.90;;;21.10;90.70;;;;;;4968866;28;102267;-72
2022/06/10 06:25:15;;;;;;;7.38;4.53;;;21.20;90.30;;;;;;4937042;28;99531;-72
2022/06/10 06:27:48;;;;;;;8.65;3.97;;;21.30;90.00;;;;;;4952682;28;98639;-72
2022/06/10 06:30:19;;;;;;;11.32;4.80;;;21.40;90.10;;;;;;4953627;28;99382;-72
2022/06/10 06:32:47;;;;;;;9.80;5.15;;;21.30;90.00;;;;;;4953253;28;99030;-72
2022/06/10 06:35:15;;;;;;;13.25;6.28;;;21.20;90.00;;;;;;4953786;28;98509;-72
2022/06/10 06:37:43;;;;;;;10.63;5.15;;;21.10;90.10;;;;;;4954273;28;98046;-72
2022/06/10 06:40:11;;;;;;;5.22;3.65;;;21.10;90.20;;;;;;4953380;28;99246;-72
2022/06/10 06:42:38;;;;;;;8.07;5.03;;;21.00;90.30;;;;;;4935875;28;102304;-72
2022/06/10 06:45:08;;;;;;;9.40;4.40;;;21.00;90.40;;;;;;4951804;28;99304;-72
2022/06/10 06:47:48;;;;;;;9.13;5.32;;;20.90;90.30;;;;;;4952845;28;99071;-72
2022/06/10 06:50:19;;;;;;;7.55;5.28;;;20.90;90.30;;;;;;4967843;28;105866;-72
2022/06/10 06:52:46;;;;;;;7.80;3.83;;;20.90;90.50;;;;;;4951883;28;100075;-72
2022/06/10 06:55:13;;;;;;;8.70;5.00;;;20.90;90.50;;;;;;4936192;28;99130;-72
2022/06/10 06:57:41;;;;;;;8.52;4.07;;;20.90;90.50;;;;;;4951873;28;98587;-72
2022/06/10 07:00:08;;;;;;;7.75;4.82;;;21.00;90.40;;;;;;4952994;28;99256;-72
2022/06/10 07:02:37;;;;;;;5.78;4.53;;;21.10;90.40;;;;;;4968550;28;99018;-72
2022/06/10 07:05:04;;;;;;;10.23;6.00;;;21.20;90.40;;;;;;4952282;28;98509;-72
2022/06/10 07:07:32;;;;;;;9.90;5.13;;;21.20;90.40;;;;;;4953596;28;98533;-72
2022/06/10 07:10:00;;;;;;;10.45;5.82;;;21.20;90.60;;;;;;4953012;28;99963;-72
2022/06/10 07:12:27;;;;;;;11.93;6.10;;;21.20;90.60;;;;;;4952927;28;99724;-72
2022/06/10 07:14:54;;;;;;;9.02;4.85;;;21.20;90.60;;;;;;4951900;28;98532;-72
2022/06/10 07:17:21;;;;;;;9.25;4.30;;;21.30;90.60;;;;;;4952134;28;98897;-72
2022/06/10 07:19:50;;;;;;;7.15;6.20;;;21.50;90.60;;;;;;4968012;28;99229;-72
2022/06/10 07:22:17;;;;;;;11.40;4.45;;;21.60;90.50;;;;;;4967876;28;99248;-72
2022/06/10 07:24:44;;;;;;;10.40;6.50;;;21.60;90.40;;;;;;4953364;28;98442;-72
2022/06/10 07:27:11;;;;;;;9.05;5.13;;;21.70;90.40;;;;;;4953404;28;97772;-72
2022/06/10 07:29:38;;;;;;;8.43;5.22;;;21.90;90.40;;;;;;4951392;28;99236;-71
2022/06/10 07:32:06;;;;;;;8.23;4.75;;;22.00;90.20;;;;;;4952665;28;99050;-71
2022/06/10 07:34:33;;;;;;;10.65;5.80;;;22.10;90.20;;;;;;4952303;28;101462;-71
2022/06/10 07:37:00;;;;;;;10.07;4.43;;;22.10;90.20;;;;;;4953207;28;98538;-71
2022/06/10 07:39:27;;;;;;;13.07;5.20;;;22.10;90.40;;;;;;4951244;28;99369;-71
2022/06/10 07:41:58;;;;;;;10.50;5.20;;;22.00;90.60;;;;;;4967816;28;99108;-71
2022/06/10 07:44:30;;;;;;;11.52;5.00;;;21.90;91.10;;;;;;4969223;28;99349;-71
2022/06/10 07:46:59;;;;;;;7.78;6.68;;;21.80;91.40;;;;;;4955519;28;98635;-71
2022/06/10 07:49:28;;;;;;;9.55;6.28;;;21.80;91.60;;;;;;4954854;28;99465;-71
2022/06/10 07:51:57;;;;;;;10.10;5.93;;;21.70;91.80;;;;;;4956508;28;98758;-71
2022/06/10 07:54:24;;;;;;;11.68;6.90;;;21.70;91.80;;;;;;4971252;28;98506;-71
2022/06/10 07:56:51;;;;;;;9.70;6.30;;;21.60;92.00;;;;;;4954811;28;98839;-71
2022/06/10 07:59:18;;;;;;;8.52;5.72;;;21.60;92.20;;;;;;4953961;28;100033;-71
2022/06/10 08:01:45;;;;;;;10.38;6.30;;;21.60;92.20;;;;;;4956237;28;99760;-71
2022/06/10 08:04:12;;;;;;;9.70;7.45;;;21.50;92.40;;;;;;4955030;28;98624;-71
2022/06/10 08:06:43;;;;;;;9.30;6.80;;;21.40;92.60;;;;;;4956231;28;98531;-71
2022/06/10 08:09:10;;;;;;;10.35;6.88;;;21.40;92.80;;;;;;4955936;28;99064;-71
2022/06/10 08:11:38;;;;;;;7.25;5.93;;;21.30;92.90;;;;;;4970317;28;98998;-71
2022/06/10 08:14:06;;;;;;;8.05;6.40;;;21.20;93.10;;;;;;4938632;28;98607;-71
2022/06/10 08:16:35;;;;;;;8.63;5.40;;;21.10;93.20;;;;;;4938720;28;97851;-71
2022/06/10 08:19:03;;;;;;;8.68;7.10;;;21.20;93.20;;;;;;4955684;28;99360;-71
2022/06/10 08:24:16;;;;;;;10.02;5.60;;;21.40;93.00;;;;;;4955675;28;100177;-71
2022/06/10 08:26:43;;;;;;;12.60;7.45;;;21.60;92.80;;;;;;4955921;28;98546;-71
2022/06/10 08:29:16;;;;;;;8.00;6.50;;;21.60;92.80;;;;;;4955651;28;99386;-71
2022/06/10 08:31:43;;;;;;;8.35;5.70;;;21.60;92.80;;;;;;4970409;28;101698;-71
2022/06/10 08:34:11;;;;;;;7.78;5.22;;;21.70;92.70;;;;;;4970867;28;98684;-71
2022/06/10 08:36:38;;;;;;;8.80;6.10;;;21.80;92.50;;;;;;4954376;28;99277;-71
2022/06/10 08:39:05;;;;;;;8.50;5.43;;;21.80;92.60;;;;;;4955376;28;99406;-71
2022/06/10 08:41:39;;;;;;;9.10;4.65;;;21.80;92.50;;;;;;4954409;28;98960;-71
2022/06/10 08:44:36;;;;;;;;;;;21.80;92.60;;;;;;4956164;28;98482;-71
2022/06/10 08:47:24;;;;;;;11.18;5.93;;;21.70;92.60;;;;;;4886514;28;98568;-71
2022/06/10 08:49:57;;;;;;;9.50;6.47;;;21.70;92.80;;;;;;4969912;28;100054;-71
2022/06/10 08:52:30;;;;;;;7.03;4.88;;;21.90;92.50;;;;;;4955097;28;100018;-71
2022/06/10 08:55:10;;;;;;;11.20;5.85;;;22.00;92.20;;;;;;4953882;28;98556;-71
2022/06/10 08:57:44;;;;;;;9.90;4.85;;;22.10;92.10;;;;;;4954719;28;99475;-71
2022/06/10 09:00:11;;;;;;;10.25;5.18;;;22.20;91.70;;;;;;4954933;28;100420;-71
2022/06/10 09:02:45;;;;;;;6.95;4.78;;;22.30;91.40;;;;;;4954748;28;99118;-71
2022/06/10 09:05:25;;;;;;;10.00;5.72;;;22.50;91.20;;;;;;4937904;28;99171;-71
2022/06/10 09:08:12;;;;;;;12.48;6.97;;;22.60;91.10;;;;;;4955660;28;98006;-71
2022/06/10 09:10:49;;;;;;;14.13;5.25;;;22.60;91.00;;;;;;4954808;28;99383;-71
2022/06/10 09:13:39;;;;;;;7.47;4.55;;;22.50;91.10;;;;;;4969843;28;99051;-71
2022/06/10 09:16:25;;;;;;;8.90;5.18;;;22.50;91.10;;;;;;4955031;28;99303;-71
2022/06/10 09:19:07;;;;;;;9.00;4.38;;;22.40;91.30;;;;;;4954185;28;98647;-71
2022/06/10 09:21:42;;;;;;;10.98;4.88;;;22.60;91.30;;;;;;4953183;28;101800;-72
2022/06/10 09:24:48;;;;;;;9.70;4.53;;;22.70;91.20;;;;;;4946684;28;101796;-71
2022/06/10 09:27:26;;;;;;;12.82;4.85;;;22.90;90.90;;;;;;4859662;28;99482;-71
2022/06/10 09:29:57;;;;;;;9.85;4.28;;;23.00;90.50;;;;;;4931900;28;99572;-70
2022/06/10 09:32:59;;;;;;;9.02;4.22;;;23.10;90.40;;;;;;4928275;28;99715;-72
2022/06/10 09:35:46;;;;;;;8.90;4.10;;;23.20;89.50;;;;;;4931634;28;101469;-73
2022/06/10 09:38:35;;;;;;;11.38;4.72;;;23.00;90.00;;;;;;4926991;28;98767;-72
2022/06/10 09:41:21;;;;;;;7.10;3.83;;;23.10;89.90;;;;;;4916931;28;99240;-74
2022/06/10 09:44:15;;;;;;;7.30;3.70;;;23.10;89.90;;;;;;4913292;28;100387;-74
2022/06/10 09:47:00;;;;;;;11.13;4.00;;;23.20;89.90;;;;;;4926383;28;102271;-72
2022/06/10 09:49:46;;;;;;;9.27;3.90;;;23.10;89.90;;;;;;4915732;28;98837;-72
2022/06/10 09:52:32;;;;;;;7.97;3.70;;;23.20;89.90;;;;;;4915240;28;98538;-73
2022/06/10 09:55:34;;;;;;;9.50;4.20;;;23.30;89.60;;;;;;4931234;28;103619;-72
2022/06/10 09:58:42;;;;;;;8.70;4.10;;;23.40;89.00;;;;;;4929364;28;102209;-71
2022/06/10 10:01:40;;;;;;;9.05;4.00;;;23.40;89.30;;;;;;4870696;28;98580;-72
2022/06/10 10:04:39;;;;;;;10.85;4.20;;;23.30;89.60;;;;;;4851389;28;98807;-72
2022/06/10 10:07:17;;;;;;;7.18;4.13;;;23.20;90.00;;;;;;4921297;28;102083;-72
2022/06/10 10:10:23;;;;;;;8.93;4.10;;;23.00;90.30;;;;;;4934507;28;99040;-72
2022/06/10 10:13:21;;;;;;;11.90;4.63;;;22.90;90.30;;;;;;4933216;28;99429;-72
2022/06/10 10:16:17;;;;;;;9.32;6.07;;;22.70;90.50;;;;;;4933176;28;100441;-72
2022/06/10 10:19:38;;;;;;;8.95;5.43;;;22.60;90.90;;;;;;4907671;28;100813;-72
2022/06/10 10:22:44;;;;;;;7.85;4.70;;;22.60;91.10;;;;;;4902806;28;101671;-72
2022/06/10 10:25:29;;;;;;;10.70;4.95;;;22.70;90.90;;;;;;4933642;28;98571;-72
2022/06/10 10:27:57;;;;;;;8.70;4.80;;;23.00;90.80;;;;;;4933416;28;98544;-72
2022/06/10 10:30:38;;;;;;;7.97;4.72;;;23.30;90.60;;;;;;4932653;28;101983;-72
2022/06/10 10:33:09;;;;;;;8.70;5.28;;;23.70;90.20;;;;;;4934727;28;99101;-72
2022/06/10 10:35:45;;;;;;;10.30;4.53;;;23.80;89.80;;;;;;4949291;28;98522;-72
2022/06/10 10:38:44;;;;;;;8.65;4.35;;;24.00;89.30;;;;;;4933078;28;98803;-72
2022/06/10 10:41:18;;;;;;;10.00;5.15;;;24.30;88.60;;;;;;4933798;28;100010;-72
2022/06/10 10:43:48;;;;;;;7.28;4.40;;;24.60;88.00;;;;;;4933703;28;99490;-72
2022/06/10 10:46:28;;;;;;;8.32;3.90;;;24.90;87.40;;;;;;4934339;28;98497;-72
2022/06/10 10:48:57;;;;;;;9.77;4.32;;;25.40;85.80;;;;;;4934104;28;98487;-72
2022/06/10 10:51:33;;;;;;;6.18;4.85;;;25.60;84.10;;;;;;4932536;28;99246;-72
2022/06/10 10:54:26;;;;;;;6.77;3.57;;;25.80;82.80;;;;;;4933885;28;98737;-72
2022/06/10 10:56:54;;;;;;;8.80;3.78;;;25.80;82.20;;;;;;4932430;28;98587;-72
2022/06/10 10:59:30;;;;;;;8.43;4.57;;;25.60;82.60;;;;;;4933364;28;97815;-72
2022/06/10 11:01:57;;;;;;;9.77;4.53;;;25.50;82.50;;;;;;4932223;28;101933;-72
2022/06/10 11:04:33;;;;;;;7.95;4.25;;;25.40;83.70;;;;;;4933743;28;99043;-72
2022/06/10 11:07:20;;;;;;;4.78;3.17;;;25.30;82.70;;;;;;4932181;28;99335;-72
2022/06/10 11:10:26;;;;;;;11.40;4.13;;;25.50;83.20;;;;;;4932306;28;98643;-72
2022/06/10 11:12:53;;;;;;;7.03;3.75;;;25.70;82.50;;;;;;4933311;28;99405;-72
2022/06/10 11:15:34;;;;;;;11.35;5.22;;;26.00;81.90;;;;;;4932686;28;99028;-72
2022/06/10 11:18:02;;;;;;;7.57;3.42;;;26.40;81.20;;;;;;4933993;28;99148;-72
2022/06/10 11:20:30;;;;;;;7.10;3.53;;;26.70;80.70;;;;;;4933772;28;98610;-72
2022/06/10 11:23:24;;;;;;;6.57;3.97;;;27.00;79.60;;;;;;4933259;28;99447;-72
2022/06/10 11:26:12;;;;;;;4.90;2.45;;;27.20;77.40;;;;;;4933816;28;99180;-72
2022/06/10 11:28:42;;;;;;;7.55;4.55;;;27.30;77.50;;;;;;4933937;28;98628;-72
2022/06/10 11:31:52;;;;;;;5.55;2.50;;;27.20;77.10;;;;;;4948451;28;98543;-72
2022/06/10 11:34:40;;;;;;;8.68;2.70;;;27.30;76.30;;;;;;4932707;28;99956;-72
2022/06/10 11:37:38;;;;;;;6.15;2.63;;;27.20;76.70;;;;;;4933345;28;99780;-72
2022/06/10 11:40:14;;;;;;;4.50;2.50;;;27.20;76.20;;;;;;4932254;28;99417;-72
2022/06/10 11:42:57;;;;;;;6.80;3.35;;;27.10;76.30;;;;;;4932404;28;98508;-72
2022/06/10 11:45:30;;;;;;;7.43;3.28;;;27.10;75.80;;;;;;4933422;28;100145;-72
2022/06/10 11:48:16;;;;;;;5.97;3.40;;;27.10;76.00;;;;;;4931603;28;101644;-72
2022/06/10 11:50:55;;;;;;;8.57;4.07;;;27.20;76.20;;;;;;4931946;28;98581;-72
2022/06/10 11:53:54;;;;;;;7.28;3.80;;;27.20;76.20;;;;;;4933972;28;97826;-72
2022/06/10 12:02:05;;;;;;;6.93;3.17;;;27.70;75.60;;;;;;4931422;28;99261;-72
2022/06/10 12:04:41;;;;;;;7.88;4.38;;;27.80;75.50;;;;;;4932125;28;98631;-72
2022/06/10 12:07:16;;;;;;;8.93;4.15;;;27.80;75.00;;;;;;4931129;28;99417;-72
2022/06/10 12:09:47;;;;;;;8.70;5.07;;;27.90;74.70;;;;;;4932969;28;99040;-72
2022/06/10 12:12:20;;;;;;;7.97;3.88;;;27.90;74.40;;;;;;4931861;28;98572;-72
2022/06/10 12:14:54;;;;;;;9.18;4.32;;;28.00;74.10;;;;;;4933383;28;98489;-72
2022/06/10 12:17:41;;;;;;;6.85;4.45;;;28.00;74.00;;;;;;4932868;28;99494;-72
2022/06/10 12:20:16;;;;;;;9.73;4.43;;;27.90;74.20;;;;;;4932846;28;98965;-72
2022/06/10 12:22:43;;;;;;;4.93;4.28;;;27.80;74.50;;;;;;4933343;28;98642;-72
2022/06/10 12:25:35;;;;;;;7.68;4.25;;;27.70;74.90;;;;;;4932953;28;98476;-72
2022/06/10 12:28:31;;;;;;;8.68;3.38;;;27.60;74.60;;;;;;4932078;28;100029;-72
2022/06/10 12:31:07;;;;;;;10.73;5.43;;;27.50;74.90;;;;;;4928095;28;102881;-72
2022/06/10 12:33:41;;;;;;;5.53;2.80;;;27.40;75.00;;;;;;4936706;28;99019;-72
2022/06/10 12:36:23;;;;;;;7.32;3.28;;;27.30;75.40;;;;;;4934856;28;98605;-72
2022/06/10 12:38:52;;;;;;;6.43;3.22;;;27.30;75.10;;;;;;4936380;28;99415;-72
2022/06/10 12:41:35;;;;;;;6.82;3.60;;;27.20;75.50;;;;;;4918147;28;101586;-72
2022/06/10 12:44:05;;;;;;;7.40;4.45;;;27.40;75.10;;;;;;4936165;28;98551;-72
2022/06/10 12:46:49;;;;;;;6.55;2.38;;;27.50;75.30;;;;;;4935131;28;97810;-72
2022/06/10 12:49:19;;;;;;;8.43;3.25;;;27.80;75.30;;;;;;4934444;28;99353;-72
2022/06/10 12:52:01;;;;;;;6.68;3.60;;;27.70;75.20;;;;;;4934465;28;101681;-72
2022/06/10 12:54:39;;;;;;;6.65;3.30;;;27.70;74.00;;;;;;4935999;28;99622;-72
2022/06/10 12:57:33;;;;;;;5.60;3.28;;;27.50;74.60;;;;;;4935338;28;99048;-72
2022/06/10 13:00:18;;;;;;;5.15;3.10;;;27.30;74.40;;;;;;4918043;28;102054;-72
2022/06/10 13:02:48;;;;;;;7.32;3.60;;;27.10;75.40;;;;;;4935635;28;98942;-72
2022/06/10 13:05:20;;;;;;;8.65;3.75;;;27.10;75.80;;;;;;4950662;28;98699;-72
2022/06/10 13:07:49;;;;;;;6.55;3.08;;;27.30;76.00;;;;;;4935823;28;98521;-72
2022/06/10 13:10:35;;;;;;;6.55;3.10;;;27.40;74.90;;;;;;4934224;28;99418;-72
2022/06/10 13:13:29;;;;;;;6.50;3.88;;;27.50;74.10;;;;;;4934525;28;98808;-72
2022/06/10 13:16:25;;;;;;;6.53;2.47;;;27.50;74.10;;;;;;4933232;28;99186;-72
2022/06/10 13:18:57;;;;;;;8.05;2.72;;;27.60;74.20;;;;;;4934064;28;98678;-72
2022/06/10 13:21:31;;;;;;;10.88;3.78;;;27.70;74.20;;;;;;4933416;28;102764;-72
2022/06/10 13:24:12;;;;;;;6.38;2.92;;;27.90;74.00;;;;;;4935447;28;99709;-72
2022/06/10 13:26:39;;;;;;;5.88;3.10;;;28.00;74.10;;;;;;4950699;28;98615;-72
2022/06/10 13:29:12;;;;;;;6.03;3.00;;;28.00;74.10;;;;;;4934204;28;98636;-72
2022/06/10 13:31:48;;;;;;;;;;;28.10;73.70;;;;;;4935737;28;99220;-72
2022/06/10 13:34:32;;;;;;;7.65;3.53;;;28.00;72.70;;;;;;4936270;28;98647;-72
2022/06/10 13:37:06;;;;;;;6.10;4.30;;;28.20;72.20;;;;;;4935614;28;98582;-72